Jesup, Georgia
Current Conditions -  °F | °C
As of 2:55 PM on Sunday 21 Dec 2014 (Local Time) from KJES Reporting Station
Overcast Overcast  
Wind Chill: 54°   Ceiling: 400
Heat Index: 54°   Visibility: 10mi
Dew Point: 52°   Wind: 7mph
Humidity: 94%   Direction: 70°ENE
Pressure: 30.1"   Gusts: NA
Location:  31.61°N, 81.88°W
Report Text: KJES 211955Z AUTO 07006KT 10SM OVC004 12/11 A3010 RMK AO2
Loading
Personal Weather Stations






























Interactive Weather Map New forecast layout! Learn more

10-Day Weather Forecast

Advertisements
Track Severe Weather on mobile